Time;durP1;ratioP1;P1;durP2;ratioP2;P2;SDS_P1;SDS_P2;PMS_P1;PMS_P2;Temp;Humidity;BMP_temperature;BMP_pressure;BME280_temperature;BME280_humidity;BME280_pressure;Samples;Min_cycle;Max_cycle;Signal;HPM_P1;HPM_P2
2023/08/29 00:00:51;;;;;;;3.17;2.38;;;18.80;99.90;;;;;;4159389;28;20042;-62
2023/08/29 00:02:53;;;;;;;3.03;2.30;;;18.80;99.90;;;;;;4160369;28;20084;-62
2023/08/29 00:04:53;;;;;;;3.28;2.30;;;18.80;99.90;;;;;;4192176;28;20055;-62
2023/08/29 00:06:54;;;;;;;2.33;2.05;;;18.70;99.90;;;;;;4159861;28;20409;-61
2023/08/29 00:08:54;;;;;;;2.35;1.75;;;18.70;99.90;;;;;;4161811;28;20048;-62
2023/08/29 00:10:56;;;;;;;2.67;2.13;;;18.60;99.90;;;;;;4161171;28;20497;-62
2023/08/29 00:12:57;;;;;;;1.92;1.73;;;18.70;99.90;;;;;;4161769;28;20457;-62
2023/08/29 00:14:58;;;;;;;3.58;2.13;;;18.60;99.90;;;;;;4161964;28;20033;-62
2023/08/29 00:16:59;;;;;;;3.13;1.70;;;18.60;99.90;;;;;;4161143;28;20402;-61
2023/08/29 00:19:00;;;;;;;3.97;1.98;;;18.50;99.90;;;;;;4161868;28;20025;-62
2023/08/29 00:21:00;;;;;;;2.63;1.90;;;18.50;99.90;;;;;;4176248;28;20048;-62
2023/08/29 00:23:01;;;;;;;2.97;2.13;;;18.50;99.90;;;;;;4147679;28;20109;-61
2023/08/29 00:25:02;;;;;;;1.85;1.73;;;18.50;99.90;;;;;;4144052;28;20108;-61
2023/08/29 00:27:03;;;;;;;2.13;1.73;;;18.50;99.90;;;;;;4153443;28;20501;-62
2023/08/29 00:29:03;;;;;;;2.08;1.88;;;18.50;99.90;;;;;;4161449;28;20079;-62
2023/08/29 00:31:04;;;;;;;1.65;1.52;;;18.50;99.90;;;;;;4160915;28;20103;-61
2023/08/29 00:33:05;;;;;;;2.28;1.70;;;18.40;99.90;;;;;;4161535;28;20440;-62
2023/08/29 00:35:06;;;;;;;1.92;1.60;;;18.40;99.90;;;;;;4161566;28;20037;-63
2023/08/29 00:37:07;;;;;;;2.70;1.92;;;18.40;99.90;;;;;;4161306;28;20030;-62
2023/08/29 00:39:08;;;;;;;2.75;2.03;;;18.40;99.90;;;;;;4193260;28;20040;-62
2023/08/29 00:41:10;;;;;;;2.75;1.65;;;18.30;99.90;;;;;;4160413;28;20038;-62
2023/08/29 00:43:11;;;;;;;;;;;18.40;99.90;;;;;;4160872;28;20037;-62
2023/08/29 00:45:11;;;;;;;3.38;1.60;;;18.30;99.90;;;;;;4160870;28;19913;-62
2023/08/29 00:47:12;;;;;;;3.83;1.73;;;18.30;99.90;;;;;;4160830;28;22220;-62
2023/08/29 00:49:16;;;;;;;2.25;1.73;;;18.20;99.90;;;;;;4161528;28;20045;-62
2023/08/29 00:51:20;;;;;;;2.15;1.90;;;18.20;99.90;;;;;;4161241;28;20034;-75
2023/08/29 00:53:22;;;;;;;2.40;1.90;;;18.20;99.90;;;;;;4161899;28;20116;-72
2023/08/29 00:55:25;;;;;;;3.85;2.15;;;18.20;99.90;;;;;;4160092;28;20087;-69
2023/08/29 00:57:26;;;;;;;2.65;2.13;;;18.10;99.90;;;;;;4158567;28;20049;-71
2023/08/29 00:59:26;;;;;;;2.28;1.73;;;18.20;99.90;;;;;;4161191;28;20041;-72
2023/08/29 01:01:28;;;;;;;1.85;1.65;;;18.20;99.90;;;;;;4159568;28;20030;-72
2023/08/29 01:03:28;;;;;;;4.15;2.20;;;18.10;99.90;;;;;;4161143;28;20033;-72
2023/08/29 01:05:29;;;;;;;2.40;1.95;;;18.10;99.90;;;;;;4151555;28;20102;-64
2023/08/29 01:07:30;;;;;;;2.10;1.88;;;18.10;99.90;;;;;;4150696;28;20056;-76
2023/08/29 01:09:31;;;;;;;2.30;1.52;;;18.00;99.90;;;;;;4161574;28;20055;-77
2023/08/29 01:11:53;;;;;;;1.88;1.73;;;18.10;99.90;;;;;;4161696;28;20060;-77
2023/08/29 01:14:10;;;;;;;2.53;2.10;;;18.00;99.90;;;;;;4163113;28;20046;-77
2023/08/29 01:16:12;;;;;;;2.40;2.17;;;18.10;99.90;;;;;;4163375;28;20470;-76
2023/08/29 01:18:15;;;;;;;2.05;1.85;;;18.00;99.90;;;;;;4164550;28;20049;-76
2023/08/29 01:20:17;;;;;;;2.22;1.92;;;18.00;99.90;;;;;;4164181;28;20382;-77
2023/08/29 01:22:29;;;;;;;2.20;2.00;;;18.00;99.90;;;;;;4164246;28;20025;-77
2023/08/29 01:24:45;;;;;;;1.90;1.67;;;18.00;99.90;;;;;;4164620;28;20670;-77
2023/08/29 01:26:46;;;;;;;3.33;2.10;;;18.00;99.90;;;;;;4162915;28;20034;-77
2023/08/29 01:28:47;;;;;;;2.10;1.90;;;18.00;99.90;;;;;;4164698;28;20036;-77
2023/08/29 01:30:49;;;;;;;2.03;1.73;;;17.90;99.90;;;;;;4163965;28;20036;-77
2023/08/29 01:32:51;;;;;;;2.35;1.80;;;17.90;99.90;;;;;;4164433;28;20037;-77
2023/08/29 01:34:52;;;;;;;1.50;1.40;;;17.90;99.90;;;;;;4164733;28;20120;-77
2023/08/29 01:36:52;;;;;;;2.30;2.10;;;17.90;99.90;;;;;;4163791;28;20029;-76
2023/08/29 01:38:53;;;;;;;2.25;2.05;;;17.90;99.90;;;;;;4164695;28;20541;-76
2023/08/29 01:40:54;;;;;;;2.05;1.85;;;17.80;99.90;;;;;;4162461;28;20176;-75
2023/08/29 01:42:54;;;;;;;2.40;2.05;;;17.90;99.90;;;;;;4148228;28;20050;-76
2023/08/29 01:44:55;;;;;;;2.60;2.05;;;17.90;99.90;;;;;;4163929;28;20079;-76
2023/08/29 01:46:55;;;;;;;5.85;2.42;;;17.80;99.90;;;;;;4162651;28;20517;-76
2023/08/29 01:49:01;;;;;;;3.10;1.80;;;17.80;99.90;;;;;;4163467;28;20083;-76
2023/08/29 01:51:02;;;;;;;2.03;1.80;;;17.80;99.90;;;;;;4162468;28;20462;-76
2023/08/29 01:53:04;;;;;;;2.20;2.00;;;17.80;99.90;;;;;;4163501;28;20498;-76
2023/08/29 01:55:05;;;;;;;3.30;2.08;;;17.80;99.90;;;;;;4158297;28;20030;-77
2023/08/29 01:57:09;;;;;;;2.20;2.00;;;17.80;99.90;;;;;;4159046;28;20520;-76
2023/08/29 01:59:09;;;;;;;2.33;1.95;;;17.80;99.90;;;;;;4195534;28;20037;-77
2023/08/29 02:01:10;;;;;;;3.00;1.92;;;17.80;99.90;;;;;;4163344;28;20041;-76
2023/08/29 02:03:11;;;;;;;3.58;2.20;;;17.80;99.90;;;;;;4163926;28;20033;-69
2023/08/29 02:05:11;;;;;;;1.90;1.63;;;17.80;99.90;;;;;;4160785;28;20069;-75
2023/08/29 02:07:12;;;;;;;2.55;2.08;;;17.80;99.90;;;;;;4163616;28;20037;-75
2023/08/29 02:09:12;;;;;;;2.45;2.17;;;17.80;99.90;;;;;;4164096;28;20024;-76
2023/08/29 02:11:13;;;;;;;2.33;2.10;;;17.80;99.90;;;;;;4152941;28;20505;-76
2023/08/29 02:13:14;;;;;;;5.82;2.20;;;17.80;99.90;;;;;;4147243;28;20405;-76
2023/08/29 02:15:14;;;;;;;3.28;2.15;;;17.80;99.90;;;;;;4159837;28;20096;-75
2023/08/29 02:17:15;;;;;;;2.75;2.25;;;17.80;99.90;;;;;;4163912;28;20057;-76
2023/08/29 02:19:15;;;;;;;2.58;1.95;;;17.70;99.90;;;;;;4163783;28;20057;-76
2023/08/29 02:21:16;;;;;;;2.67;2.22;;;17.70;99.90;;;;;;4162045;28;20025;-72
2023/08/29 02:23:17;;;;;;;2.35;2.15;;;17.70;99.90;;;;;;4164045;28;20064;-73
2023/08/29 02:25:17;;;;;;;4.40;1.83;;;17.70;99.90;;;;;;4162978;28;20121;-73
2023/08/29 02:27:18;;;;;;;2.40;2.00;;;17.70;99.90;;;;;;4163087;28;20037;-73
2023/08/29 02:29:18;;;;;;;3.50;2.28;;;17.70;99.90;;;;;;4163414;28;20090;-72
2023/08/29 02:31:20;;;;;;;2.88;2.10;;;17.60;99.90;;;;;;4162990;28;20030;-73
2023/08/29 02:33:21;;;;;;;2.53;2.15;;;17.60;99.90;;;;;;4163755;28;20087;-73
2023/08/29 02:35:22;;;;;;;2.25;1.90;;;17.70;99.90;;;;;;4162660;28;20091;-73
2023/08/29 02:37:23;;;;;;;2.30;2.10;;;17.70;99.90;;;;;;4163262;28;20038;-73
2023/08/29 02:39:23;;;;;;;2.03;1.90;;;17.60;99.90;;;;;;4163361;28;20071;-73
2023/08/29 02:41:24;;;;;;;3.08;2.30;;;17.60;99.90;;;;;;4161033;28;20392;-72
2023/08/29 02:43:25;;;;;;;2.60;2.38;;;17.60;99.90;;;;;;4163535;28;20108;-72
2023/08/29 02:45:26;;;;;;;2.97;2.50;;;17.60;99.90;;;;;;4162599;28;20488;-69
2023/08/29 02:47:26;;;;;;;3.13;2.35;;;17.60;99.90;;;;;;4161821;28;20120;-72
2023/08/29 02:49:27;;;;;;;3.22;2.38;;;17.60;99.90;;;;;;4163244;28;20184;-73
2023/08/29 02:51:27;;;;;;;2.55;2.28;;;17.60;99.90;;;;;;4162557;28;20033;-72
2023/08/29 02:53:29;;;;;;;3.85;2.45;;;17.60;99.90;;;;;;4163345;28;20057;-72
2023/08/29 02:55:30;;;;;;;2.47;2.03;;;17.60;99.90;;;;;;4161059;28;20519;-72
2023/08/29 02:57:30;;;;;;;2.78;2.15;;;17.60;99.90;;;;;;4163296;28;20059;-72
2023/08/29 02:59:31;;;;;;;2.10;1.90;;;17.60;99.90;;;;;;4161062;28;20048;-72
2023/08/29 03:01:32;;;;;;;2.05;1.88;;;17.60;99.90;;;;;;4162632;28;20160;-72
2023/08/29 03:03:32;;;;;;;2.13;1.92;;;17.50;99.90;;;;;;4163032;28;20034;-72
2023/08/29 03:05:33;;;;;;;2.20;2.00;;;17.50;99.90;;;;;;4160536;28;20038;-72
2023/08/29 03:07:34;;;;;;;2.53;2.33;;;17.50;99.90;;;;;;4161741;28;20064;-72
2023/08/29 03:09:34;;;;;;;2.42;2.22;;;17.50;99.90;;;;;;4162287;28;20053;-72
2023/08/29 03:11:35;;;;;;;2.20;1.90;;;17.50;99.90;;;;;;4160286;28;20445;-73
2023/08/29 03:13:36;;;;;;;2.50;1.92;;;17.50;99.90;;;;;;4159453;28;20057;-72
2023/08/29 03:15:37;;;;;;;2.22;2.03;;;17.50;99.90;;;;;;4161064;28;20041;-72
2023/08/29 03:17:38;;;;;;;2.53;1.98;;;17.50;99.90;;;;;;4162371;28;20034;-72
2023/08/29 03:19:38;;;;;;;2.85;2.55;;;17.50;99.90;;;;;;4161942;28;20440;-73
2023/08/29 03:21:39;;;;;;;2.83;2.40;;;17.50;99.90;;;;;;4161161;28;20030;-73
2023/08/29 03:23:40;;;;;;;2.40;2.20;;;17.50;99.90;;;;;;4161167;28;20041;-72
2023/08/29 03:25:41;;;;;;;3.17;2.40;;;17.50;99.90;;;;;;4160463;28;20088;-72
2023/08/29 03:27:41;;;;;;;2.30;2.10;;;17.50;99.90;;;;;;4157623;28;20040;-72
2023/08/29 03:29:42;;;;;;;4.43;2.55;;;17.50;99.90;;;;;;4160385;28;20108;-72
2023/08/29 03:31:43;;;;;;;3.25;2.25;;;17.40;99.90;;;;;;4160355;28;20083;-63
2023/08/29 03:33:44;;;;;;;2.60;2.40;;;17.40;99.90;;;;;;4162226;28;20505;-70
2023/08/29 03:35:45;;;;;;;3.15;2.58;;;17.40;99.90;;;;;;4160801;28;20374;-71
2023/08/29 03:37:46;;;;;;;4.85;2.88;;;17.40;99.90;;;;;;4160778;28;20088;-72
2023/08/29 03:39:46;;;;;;;4.43;3.13;;;17.30;99.90;;;;;;4193343;28;20547;-71
2023/08/29 03:41:47;;;;;;;5.90;3.33;;;17.30;99.90;;;;;;4159946;28;20061;-72
2023/08/29 03:43:48;;;;;;;4.10;3.50;;;17.30;99.90;;;;;;4161860;28;20494;-72
2023/08/29 03:45:58;;;;;;;3.92;3.13;;;17.30;99.90;;;;;;4160907;28;20041;-72
2023/08/29 03:47:58;;;;;;;5.28;3.20;;;17.30;99.90;;;;;;4158166;28;20041;-72
2023/08/29 03:49:59;;;;;;;4.70;3.80;;;17.30;99.90;;;;;;4161544;28;20486;-72
2023/08/29 03:52:00;;;;;;;3.45;3.03;;;17.30;99.90;;;;;;4160131;28;20033;-72
2023/08/29 03:54:00;;;;;;;4.05;2.80;;;17.20;99.90;;;;;;4161032;28;20038;-69
2023/08/29 03:56:04;;;;;;;3.50;2.90;;;17.20;99.90;;;;;;4159572;28;20033;-72
2023/08/29 03:58:05;;;;;;;2.60;2.22;;;17.20;99.90;;;;;;4161067;28;20057;-72
2023/08/29 04:00:10;;;;;;;3.65;2.85;;;17.20;99.90;;;;;;4159729;28;20032;-73
2023/08/29 04:02:10;;;;;;;6.05;3.17;;;17.20;99.90;;;;;;4158696;28;20033;-72
2023/08/29 04:04:11;;;;;;;5.82;3.30;;;17.20;99.90;;;;;;4161290;28;20033;-71
2023/08/29 04:06:11;;;;;;;4.53;3.47;;;17.20;99.90;;;;;;4160376;28;20118;-72
2023/08/29 04:08:12;;;;;;;6.60;3.13;;;17.20;99.90;;;;;;4152571;28;20061;-72
2023/08/29 04:10:13;;;;;;;3.38;3.00;;;17.20;99.90;;;;;;4158886;28;20562;-70
2023/08/29 04:12:13;;;;;;;3.65;3.10;;;17.20;99.90;;;;;;4160914;28;20448;-71
2023/08/29 04:14:14;;;;;;;3.83;3.08;;;17.20;99.90;;;;;;4160501;28;20505;-72
2023/08/29 04:16:15;;;;;;;4.10;3.25;;;17.10;99.90;;;;;;4160503;28;20030;-72
2023/08/29 04:18:15;;;;;;;3.10;2.78;;;17.10;99.90;;;;;;4161327;28;20057;-72
2023/08/29 04:20:16;;;;;;;3.35;3.03;;;17.10;99.90;;;;;;4159380;28;20116;-72
2023/08/29 04:22:17;;;;;;;6.32;3.78;;;17.10;99.90;;;;;;4160991;28;20321;-72
2023/08/29 04:24:17;;;;;;;4.72;3.65;;;17.10;99.90;;;;;;4159539;28;20072;-73
2023/08/29 04:26:18;;;;;;;4.88;3.40;;;17.10;99.90;;;;;;4155843;28;20041;-72
2023/08/29 04:28:20;;;;;;;5.97;2.92;;;17.10;99.90;;;;;;4157005;28;20044;-72
2023/08/29 04:30:20;;;;;;;3.65;2.90;;;17.10;99.90;;;;;;4160174;28;20053;-72
2023/08/29 04:32:21;;;;;;;3.22;2.92;;;17.10;99.90;;;;;;4161202;28;20049;-73
2023/08/29 04:34:23;;;;;;;5.80;3.20;;;17.10;99.90;;;;;;4161418;28;20042;-73
2023/08/29 04:36:25;;;;;;;3.70;2.75;;;17.00;99.90;;;;;;4158980;28;20030;-73
2023/08/29 04:38:25;;;;;;;3.60;3.10;;;17.10;99.90;;;;;;4160612;28;20378;-72
2023/08/29 04:40:27;;;;;;;6.22;2.55;;;17.10;99.90;;;;;;4156265;28;20120;-73
2023/08/29 04:42:27;;;;;;;3.08;2.78;;;17.00;99.90;;;;;;4161207;28;20036;-63
2023/08/29 04:44:29;;;;;;;2.72;2.50;;;17.00;99.90;;;;;;4160185;28;20052;-63
2023/08/29 04:46:30;;;;;;;3.55;3.13;;;17.00;99.90;;;;;;4159216;28;20041;-63
2023/08/29 04:48:30;;;;;;;3.30;3.00;;;17.00;99.90;;;;;;4160627;28;20037;-63
2023/08/29 04:50:31;;;;;;;3.22;2.72;;;17.00;99.90;;;;;;4159811;28;20490;-63
2023/08/29 04:52:32;;;;;;;5.30;3.13;;;17.00;99.90;;;;;;4159730;28;20095;-63
2023/08/29 04:54:33;;;;;;;4.05;3.20;;;17.00;99.90;;;;;;4159797;28;20063;-64
2023/08/29 04:56:34;;;;;;;4.18;2.70;;;17.00;99.90;;;;;;4157252;28;20493;-64
2023/08/29 04:58:34;;;;;;;3.85;2.70;;;17.00;99.90;;;;;;4160487;28;20034;-63
2023/08/29 05:00:35;;;;;;;3.33;2.85;;;17.00;99.90;;;;;;4159621;28;20037;-63
2023/08/29 05:02:36;;;;;;;4.72;2.97;;;17.00;99.90;;;;;;4160666;28;20037;-65
2023/08/29 05:04:36;;;;;;;3.97;3.45;;;17.00;99.90;;;;;;4160270;28;20401;-64
2023/08/29 05:06:38;;;;;;;3.78;3.03;;;17.00;99.90;;;;;;4157571;28;20506;-64
2023/08/29 05:08:38;;;;;;;3.53;2.80;;;16.90;99.90;;;;;;4159490;28;20034;-64
2023/08/29 05:10:40;;;;;;;4.70;3.28;;;17.00;99.90;;;;;;4158855;28;20230;-64
2023/08/29 05:12:42;;;;;;;;;;;17.00;99.90;;;;;;4160583;28;20125;-64
2023/08/29 05:14:42;;;;;;;4.20;2.97;;;17.00;99.90;;;;;;4160579;28;19916;-64
2023/08/29 05:16:43;;;;;;;7.45;3.22;;;16.90;99.90;;;;;;4159270;28;20034;-64
2023/08/29 05:18:43;;;;;;;5.60;3.28;;;17.00;99.90;;;;;;4157147;28;20044;-66
2023/08/29 05:20:44;;;;;;;3.95;3.10;;;17.00;99.90;;;;;;4159110;28;20060;-65
2023/08/29 05:22:44;;;;;;;5.30;3.60;;;17.00;99.90;;;;;;4157191;28;20509;-64
2023/08/29 05:24:45;;;;;;;4.50;3.15;;;17.00;99.90;;;;;;4158012;28;20053;-64
2023/08/29 05:26:47;;;;;;;3.78;3.13;;;17.00;99.90;;;;;;4153279;28;20064;-64
2023/08/29 05:28:47;;;;;;;3.17;2.70;;;17.00;99.90;;;;;;4154108;28;20045;-64
2023/08/29 05:30:48;;;;;;;5.15;2.78;;;17.00;99.90;;;;;;4166878;28;20124;-64
2023/08/29 05:32:48;;;;;;;4.32;3.30;;;17.00;99.90;;;;;;4160996;28;20037;-64
2023/08/29 05:34:49;;;;;;;3.58;3.13;;;17.00;99.90;;;;;;4167477;28;20036;-64
2023/08/29 05:36:51;;;;;;;4.20;2.80;;;17.00;99.90;;;;;;4201795;28;20032;-64
2023/08/29 05:38:51;;;;;;;4.53;2.97;;;16.90;99.90;;;;;;4188256;28;20045;-64
2023/08/29 05:40:52;;;;;;;3.85;2.70;;;16.90;99.90;;;;;;4157665;28;20156;-64
2023/08/29 05:42:52;;;;;;;4.15;3.42;;;17.00;99.90;;;;;;4158421;28;20103;-64
2023/08/29 05:44:53;;;;;;;5.28;2.72;;;17.00;99.90;;;;;;4160049;28;20045;-64
2023/08/29 05:46:54;;;;;;;3.60;2.55;;;17.00;99.90;;;;;;4158725;28;20124;-64
2023/08/29 05:48:54;;;;;;;3.47;3.03;;;17.00;99.90;;;;;;4175444;28;20485;-64
2023/08/29 05:50:55;;;;;;;3.97;3.20;;;17.00;99.90;;;;;;4175626;28;20029;-64
2023/08/29 05:52:55;;;;;;;5.47;3.45;;;17.00;99.90;;;;;;4167940;28;20516;-68
2023/08/29 05:54:57;;;;;;;3.03;2.72;;;17.00;99.90;;;;;;4183011;28;20037;-69
2023/08/29 05:56:58;;;;;;;3.45;3.13;;;17.00;99.90;;;;;;4158584;28;20053;-71
2023/08/29 05:58:58;;;;;;;4.43;3.05;;;17.00;99.90;;;;;;4170480;28;20037;-68
2023/08/29 06:01:06;;;;;;;4.78;2.88;;;17.00;99.90;;;;;;4165221;28;20116;-64
2023/08/29 06:03:07;;;;;;;3.80;3.30;;;17.00;99.90;;;;;;4175488;28;20053;-63
2023/08/29 06:05:10;;;;;;;4.15;2.90;;;17.00;99.90;;;;;;4169409;28;20113;-64
2023/08/29 06:07:10;;;;;;;3.05;2.75;;;17.10;99.90;;;;;;4161512;28;20581;-64
2023/08/29 06:09:11;;;;;;;5.05;3.10;;;17.10;99.90;;;;;;4162534;28;20460;-64
2023/08/29 06:11:11;;;;;;;3.40;3.10;;;17.10;99.90;;;;;;4159713;28;20552;-69
2023/08/29 06:13:12;;;;;;;3.05;2.75;;;17.00;99.90;;;;;;4162972;28;20045;-69
2023/08/29 06:15:13;;;;;;;3.83;2.95;;;17.10;99.90;;;;;;4170433;28;20063;-69
2023/08/29 06:17:13;;;;;;;3.08;2.63;;;17.10;99.90;;;;;;4166856;28;20104;-68
2023/08/29 06:19:14;;;;;;;3.03;2.72;;;17.10;99.90;;;;;;4156506;28;20038;-68
2023/08/29 06:21:14;;;;;;;3.83;3.22;;;17.10;99.90;;;;;;4159063;28;20424;-68
2023/08/29 06:23:15;;;;;;;3.85;3.20;;;17.10;99.90;;;;;;4178275;28;20404;-68
2023/08/29 06:25:16;;;;;;;4.78;3.17;;;17.20;99.90;;;;;;4169073;28;20030;-69
2023/08/29 06:27:16;;;;;;;4.47;3.30;;;17.20;99.90;;;;;;4155752;28;20143;-69
2023/08/29 06:29:17;;;;;;;3.38;3.08;;;17.20;99.90;;;;;;4140136;28;20044;-68
2023/08/29 06:31:17;;;;;;;4.82;3.17;;;17.30;99.90;;;;;;4153199;28;20090;-69
2023/08/29 06:33:18;;;;;;;3.50;3.20;;;17.30;99.90;;;;;;4157066;28;20096;-68
2023/08/29 06:35:19;;;;;;;3.83;3.45;;;17.30;99.90;;;;;;4157150;28;20036;-68
2023/08/29 06:37:20;;;;;;;4.20;3.53;;;17.30;99.90;;;;;;4158684;28;20045;-68
2023/08/29 06:39:20;;;;;;;4.03;3.10;;;17.30;99.90;;;;;;4152778;28;20120;-68
2023/08/29 06:41:21;;;;;;;5.65;3.50;;;17.40;99.90;;;;;;4102260;28;20087;-69
2023/08/29 06:43:22;;;;;;;5.70;4.60;;;17.40;99.90;;;;;;4118383;28;20033;-67
2023/08/29 06:45:23;;;;;;;4.30;3.38;;;17.40;99.90;;;;;;4087117;28;20060;-69
2023/08/29 06:47:24;;;;;;;3.55;3.20;;;17.40;99.90;;;;;;4055935;28;20099;-69
2023/08/29 06:49:26;;;;;;;6.47;3.53;;;17.40;99.90;;;;;;4100037;28;20025;-69
2023/08/29 06:51:27;;;;;;;3.97;3.58;;;17.50;99.90;;;;;;4084919;28;20036;-68
2023/08/29 06:53:28;;;;;;;3.30;2.97;;;17.50;99.90;;;;;;4174217;28;20501;-69
2023/08/29 06:55:31;;;;;;;3.55;3.22;;;17.50;99.90;;;;;;4155980;28;20064;-69
2023/08/29 06:57:32;;;;;;;5.15;3.67;;;17.50;99.90;;;;;;4157535;28;20022;-69
2023/08/29 06:59:32;;;;;;;4.78;3.10;;;17.50;99.90;;;;;;4158295;28;20504;-69
2023/08/29 07:01:33;;;;;;;3.85;3.45;;;17.60;99.90;;;;;;4158417;28;20014;-69
2023/08/29 07:03:34;;;;;;;3.55;3.25;;;17.60;99.90;;;;;;4158836;28;20386;-69
2023/08/29 07:05:34;;;;;;;3.45;3.05;;;17.60;99.90;;;;;;4157194;28;20080;-68
2023/08/29 07:07:36;;;;;;;5.03;3.33;;;17.60;99.90;;;;;;4157254;28;20038;-69
2023/08/29 07:09:36;;;;;;;5.13;3.80;;;17.70;99.90;;;;;;4155613;28;20049;-68
2023/08/29 07:11:37;;;;;;;3.95;3.20;;;17.70;99.90;;;;;;4155852;28;20523;-69
2023/08/29 07:13:37;;;;;;;3.00;2.67;;;17.70;99.90;;;;;;4157430;28;20033;-69
2023/08/29 07:15:38;;;;;;;3.97;3.38;;;17.70;99.90;;;;;;4155167;28;20041;-69
2023/08/29 07:17:40;;;;;;;4.05;2.97;;;17.80;99.90;;;;;;4154689;28;20034;-70
2023/08/29 07:19:41;;;;;;;3.83;3.05;;;17.80;99.90;;;;;;4154284;28;20034;-70
2023/08/29 07:21:42;;;;;;;3.88;3.00;;;17.80;99.90;;;;;;4154417;28;20033;-62
2023/08/29 07:23:43;;;;;;;3.38;3.05;;;17.90;99.90;;;;;;4155251;28;20527;-62
2023/08/29 07:25:45;;;;;;;5.43;4.00;;;17.90;99.90;;;;;;4154521;28;20041;-62
2023/08/29 07:27:45;;;;;;;4.70;3.05;;;18.00;99.90;;;;;;4156451;28;20049;-62
2023/08/29 07:29:46;;;;;;;3.75;3.10;;;18.00;99.90;;;;;;4152645;28;20410;-62
2023/08/29 07:31:47;;;;;;;3.92;3.13;;;18.10;99.90;;;;;;4155027;28;20040;-62
2023/08/29 07:33:47;;;;;;;3.15;2.85;;;18.10;99.90;;;;;;4155216;28;20099;-62
2023/08/29 07:35:48;;;;;;;3.47;2.92;;;18.20;99.90;;;;;;4154004;28;20488;-63
2023/08/29 07:37:51;;;;;;;3.53;2.88;;;18.30;99.90;;;;;;4154880;28;20363;-62
2023/08/29 07:39:51;;;;;;;4.72;3.05;;;18.30;99.90;;;;;;4156683;28;20060;-62
2023/08/29 07:41:52;;;;;;;3.60;2.80;;;18.50;99.90;;;;;;4156829;28;20045;-62
2023/08/29 07:43:53;;;;;;;3.45;3.15;;;18.60;99.90;;;;;;4158374;28;20044;-62
2023/08/29 07:45:53;;;;;;;3.20;2.83;;;18.60;99.90;;;;;;4156701;28;20045;-62
2023/08/29 07:47:54;;;;;;;4.13;3.05;;;18.70;99.90;;;;;;4157020;28;20468;-62
2023/08/29 07:49:54;;;;;;;3.42;3.13;;;18.80;99.90;;;;;;4155388;28;20594;-62
2023/08/29 07:51:55;;;;;;;3.95;3.00;;;18.90;99.90;;;;;;4156562;28;20116;-62
2023/08/29 07:53:56;;;;;;;3.53;2.65;;;19.00;99.90;;;;;;4154147;28;20030;-62
2023/08/29 07:55:57;;;;;;;3.65;2.85;;;19.10;99.90;;;;;;4153376;28;20034;-63
2023/08/29 07:57:59;;;;;;;3.63;3.17;;;19.10;99.90;;;;;;4156801;28;20505;-63
2023/08/29 07:59:59;;;;;;;4.30;3.00;;;19.30;99.90;;;;;;4157917;28;20481;-62
2023/08/29 08:02:00;;;;;;;4.78;2.80;;;19.30;99.90;;;;;;4156269;28;20061;-64
2023/08/29 08:04:03;;;;;;;2.85;2.47;;;19.50;99.90;;;;;;4156774;28;20420;-62
2023/08/29 08:06:03;;;;;;;;;;;19.60;99.90;;;;;;4154803;28;20064;-63
2023/08/29 08:08:04;;;;;;;3.03;2.47;;;19.60;99.90;;;;;;4156339;28;19924;-62
2023/08/29 08:10:06;;;;;;;3.05;2.42;;;19.70;99.90;;;;;;4156547;28;20025;-62
2023/08/29 08:12:07;;;;;;;3.55;2.50;;;19.80;99.90;;;;;;4156842;28;20028;-62
2023/08/29 08:14:07;;;;;;;3.30;2.38;;;19.80;99.90;;;;;;4157393;28;20045;-62
2023/08/29 08:16:08;;;;;;;3.17;2.50;;;20.00;99.90;;;;;;4154286;28;20405;-62
2023/08/29 08:18:08;;;;;;;2.85;2.50;;;20.10;99.90;;;;;;4157143;28;20552;-62
2023/08/29 08:20:10;;;;;;;2.30;2.08;;;20.10;99.90;;;;;;4156367;28;20525;-63
2023/08/29 08:22:10;;;;;;;2.22;2.03;;;20.20;99.90;;;;;;4157376;28;20387;-62
2023/08/29 08:24:11;;;;;;;2.20;1.95;;;20.30;99.90;;;;;;4157003;28;20032;-62
2023/08/29 08:26:12;;;;;;;2.83;2.40;;;20.30;99.90;;;;;;4154762;28;20120;-62
2023/08/29 08:28:13;;;;;;;2.97;2.53;;;20.40;99.90;;;;;;4156788;28;20037;-62
2023/08/29 08:30:14;;;;;;;3.00;1.90;;;20.50;99.90;;;;;;4155041;28;20136;-62
2023/08/29 08:32:15;;;;;;;3.15;2.10;;;20.50;99.90;;;;;;4157883;28;20037;-75
2023/08/29 08:34:15;;;;;;;2.63;1.75;;;20.60;99.90;;;;;;4156662;28;20029;-75
2023/08/29 08:36:16;;;;;;;1.85;1.70;;;20.60;99.90;;;;;;4155774;28;20052;-75
2023/08/29 08:38:17;;;;;;;2.15;1.80;;;20.70;99.90;;;;;;4157367;28;20049;-75
2023/08/29 08:40:18;;;;;;;3.03;1.98;;;20.70;99.90;;;;;;4156172;28;20076;-75
2023/08/29 08:42:19;;;;;;;3.63;1.60;;;20.80;99.90;;;;;;4155543;28;20559;-76
2023/08/29 08:44:23;;;;;;;2.13;1.48;;;20.90;99.90;;;;;;4156034;28;20253;-76
2023/08/29 08:46:25;;;;;;;1.60;1.42;;;20.90;99.90;;;;;;4155344;28;20082;-76
2023/08/29 08:48:26;;;;;;;2.15;1.90;;;21.00;99.90;;;;;;4157154;28;20103;-75
2023/08/29 08:50:27;;;;;;;2.40;1.70;;;21.00;99.90;;;;;;4156073;28;20056;-72
2023/08/29 08:52:33;;;;;;;1.95;1.48;;;21.10;99.90;;;;;;4153705;28;20095;-74
2023/08/29 08:54:33;;;;;;;2.35;1.40;;;21.10;99.90;;;;;;4156134;28;20036;-75
2023/08/29 08:56:34;;;;;;;2.58;1.60;;;21.20;99.90;;;;;;4158045;28;20405;-75
2023/08/29 08:58:36;;;;;;;1.70;1.40;;;21.30;99.90;;;;;;4139498;28;20087;-75
2023/08/29 09:00:37;;;;;;;1.25;1.10;;;21.40;99.90;;;;;;4157903;28;20386;-75
2023/08/29 09:02:40;;;;;;;2.20;1.20;;;21.50;99.90;;;;;;4158751;28;20030;-76
2023/08/29 09:04:41;;;;;;;1.60;1.42;;;21.50;99.90;;;;;;4159856;28;20041;-77
2023/08/29 09:06:42;;;;;;;2.15;1.40;;;21.60;99.90;;;;;;4159207;28;20512;-76
2023/08/29 09:08:42;;;;;;;1.77;1.20;;;21.70;99.90;;;;;;4160069;28;20064;-76
2023/08/29 09:10:43;;;;;;;1.48;1.33;;;21.80;99.90;;;;;;4161436;28;20513;-76
2023/08/29 09:12:52;;;;;;;2.67;1.20;;;21.80;99.90;;;;;;4158690;28;20038;-76
2023/08/29 09:14:53;;;;;;;1.35;1.13;;;21.80;99.90;;;;;;4159861;28;20187;-76
2023/08/29 09:16:59;;;;;;;3.88;1.45;;;21.90;99.90;;;;;;4158448;28;20457;-76
2023/08/29 09:19:01;;;;;;;1.92;1.20;;;21.90;99.90;;;;;;4158837;28;20124;-75
2023/08/29 09:21:04;;;;;;;1.90;1.20;;;21.90;99.90;;;;;;4159444;28;20137;-75
2023/08/29 09:23:20;;;;;;;2.78;1.10;;;21.90;99.90;;;;;;4159648;28;20092;-75
2023/08/29 09:25:20;;;;;;;1.90;1.35;;;21.90;99.90;;;;;;4143230;28;20033;-75
2023/08/29 09:27:21;;;;;;;3.08;1.27;;;21.90;99.90;;;;;;4146446;28;20036;-75
2023/08/29 09:29:22;;;;;;;1.98;1.20;;;21.90;99.90;;;;;;4148300;28;20025;-75
2023/08/29 09:31:23;;;;;;;2.63;1.95;;;21.90;99.90;;;;;;4118872;28;20053;-76
2023/08/29 09:33:24;;;;;;;1.38;1.17;;;22.00;99.90;;;;;;4152435;28;20036;-76
2023/08/29 09:35:26;;;;;;;2.20;1.13;;;21.90;99.90;;;;;;4164458;28;20159;-75
2023/08/29 09:37:29;;;;;;;2.42;1.38;;;21.90;99.90;;;;;;4163869;28;20065;-75
2023/08/29 09:39:30;;;;;;;1.10;1.00;;;21.90;99.90;;;;;;4134651;28;20558;-75
2023/08/29 09:41:30;;;;;;;2.92;1.23;;;21.90;99.90;;;;;;4165789;28;20025;-68
2023/08/29 09:43:31;;;;;;;1.38;0.90;;;21.80;99.90;;;;;;4162645;28;20378;-68
2023/08/29 09:45:33;;;;;;;1.40;1.20;;;21.90;99.90;;;;;;4162306;28;20056;-68
2023/08/29 09:47:34;;;;;;;3.03;1.23;;;21.90;99.90;;;;;;4162373;28;20030;-68
2023/08/29 09:49:42;;;;;;;2.10;1.60;;;21.90;99.90;;;;;;4161203;28;20026;-69
2023/08/29 09:51:43;;;;;;;1.10;1.00;;;21.80;99.90;;;;;;4162099;28;20632;-69
2023/08/29 09:53:44;;;;;;;2.58;1.20;;;21.80;99.90;;;;;;4162689;28;20030;-69
2023/08/29 09:55:55;;;;;;;2.55;1.38;;;21.90;99.90;;;;;;4114490;28;20048;-69
2023/08/29 09:57:56;;;;;;;2.33;0.93;;;21.90;99.90;;;;;;4102375;28;20033;-69
2023/08/29 09:59:58;;;;;;;2.85;1.60;;;21.80;99.90;;;;;;4159312;28;20493;-69
2023/08/29 10:01:59;;;;;;;2.00;1.17;;;21.80;99.90;;;;;;4162002;28;20413;-69
2023/08/29 10:04:04;;;;;;;1.38;0.82;;;21.80;99.90;;;;;;4162568;28;20037;-68
2023/08/29 10:06:10;;;;;;;2.03;0.90;;;21.90;99.90;;;;;;4161919;28;20038;-69
2023/08/29 10:08:10;;;;;;;2.40;1.00;;;21.90;99.90;;;;;;4162855;28;20520;-68
2023/08/29 10:10:11;;;;;;;0.77;0.77;;;22.00;99.90;;;;;;4161628;28;20037;-71
2023/08/29 10:12:12;;;;;;;1.05;0.95;;;22.00;99.90;;;;;;4162677;28;20046;-68
2023/08/29 10:14:13;;;;;;;1.23;0.60;;;22.00;99.90;;;;;;4162829;28;20393;-69
2023/08/29 10:16:15;;;;;;;0.60;0.60;;;22.10;99.90;;;;;;4161449;28;20061;-69
2023/08/29 10:18:17;;;;;;;1.63;0.80;;;22.10;99.90;;;;;;4160873;28;20029;-68
2023/08/29 10:20:20;;;;;;;1.58;1.17;;;22.20;99.90;;;;;;4162846;28;20546;-69
2023/08/29 10:22:23;;;;;;;1.92;0.80;;;22.20;99.90;;;;;;4139753;28;20083;-68
2023/08/29 10:24:26;;;;;;;1.17;1.05;;;22.20;99.90;;;;;;4160994;28;20524;-68
2023/08/29 10:26:27;;;;;;;;;;;22.30;99.90;;;;;;4161348;28;20497;-69
2023/08/29 10:28:29;;;;;;;2.65;1.30;;;22.30;99.90;;;;;;4162070;28;20296;-67
2023/08/29 10:30:31;;;;;;;;;;;22.30;99.90;;;;;;4163175;28;20168;-68
2023/08/29 10:32:34;;;;;;;0.82;0.75;;;22.40;99.90;;;;;;4162597;28;20384;-68